sensor_id;sensor_type;location;lat;lon;timestamp;P1;durP1;ratioP1;P2;durP2;ratioP2
68375;SDS011;55318;52.068;5.188;2023-02-08T00:01:16;9.1;;;5.2;;
68375;SDS011;55318;52.068;5.188;2023-02-08T00:02:55;10.3;;;5.11;;
68375;SDS011;55318;52.068;5.188;2023-02-08T00:04:31;8.0;;;5.5;;
68375;SDS011;55318;52.068;5.188;2023-02-08T00:07:44;7.1;;;4.7;;
68375;SDS011;55318;52.068;5.188;2023-02-08T00:09:20;11.0;;;6.1;;
68375;SDS011;55318;52.068;5.188;2023-02-08T00:10:57;8.6;;;5.11;;
68375;SDS011;55318;52.068;5.188;2023-02-08T00:14:10;8.31;;;5.2;;
68375;SDS011;55318;52.068;5.188;2023-02-08T00:15:46;9.1;;;5.11;;
68375;SDS011;55318;52.068;5.188;2023-02-08T00:17:22;9.21;;;4.8;;
68375;SDS011;55318;52.068;5.188;2023-02-08T00:18:58;7.5;;;4.7;;
68375;SDS011;55318;52.068;5.188;2023-02-08T00:22:13;9.0;;;5.3;;
68375;SDS011;55318;52.068;5.188;2023-02-08T00:23:49;11.2;;;5.6;;
68375;SDS011;55318;52.068;5.188;2023-02-08T00:28:38;9.5;;;5.5;;
68375;SDS011;55318;52.068;5.188;2023-02-08T00:30:14;11.7;;;5.7;;
68375;SDS011;55318;52.068;5.188;2023-02-08T00:31:50;10.7;;;5.3;;
68375;SDS011;55318;52.068;5.188;2023-02-08T00:35:02;11.3;;;5.11;;
68375;SDS011;55318;52.068;5.188;2023-02-08T00:36:38;9.71;;;5.2;;
68375;SDS011;55318;52.068;5.188;2023-02-08T00:38:14;9.5;;;5.4;;
68375;SDS011;55318;52.068;5.188;2023-02-08T00:39:50;9.1;;;5.2;;
68375;SDS011;55318;52.068;5.188;2023-02-08T00:43:03;12.4;;;6.0;;
68375;SDS011;55318;52.068;5.188;2023-02-08T00:44:39;9.5;;;5.4;;
68375;SDS011;55318;52.068;5.188;2023-02-08T00:46:15;9.4;;;4.8;;
68375;SDS011;55318;52.068;5.188;2023-02-08T00:49:27;10.9;;;5.4;;
68375;SDS011;55318;52.068;5.188;2023-02-08T00:51:04;8.6;;;5.5;;
68375;SDS011;55318;52.068;5.188;2023-02-08T00:52:43;8.2;;;5.3;;
68375;SDS011;55318;52.068;5.188;2023-02-08T00:55:56;9.9;;;5.8;;
68375;SDS011;55318;52.068;5.188;2023-02-08T00:57:33;11.3;;;5.5;;
68375;SDS011;55318;52.068;5.188;2023-02-08T00:59:10;9.21;;;5.2;;
68375;SDS011;55318;52.068;5.188;2023-02-08T01:00:49;8.31;;;4.7;;
68375;SDS011;55318;52.068;5.188;2023-02-08T01:04:03;10.4;;;5.11;;
68375;SDS011;55318;52.068;5.188;2023-02-08T01:05:41;10.21;;;5.11;;
68375;SDS011;55318;52.068;5.188;2023-02-08T01:07:17;8.5;;;4.7;;
68375;SDS011;55318;52.068;5.188;2023-02-08T01:10:29;12.6;;;6.0;;
68375;SDS011;55318;52.068;5.188;2023-02-08T01:12:08;9.6;;;5.6;;
68375;SDS011;55318;52.068;5.188;2023-02-08T01:13:45;11.0;;;5.5;;
68375;SDS011;55318;52.068;5.188;2023-02-08T01:16:59;9.0;;;5.3;;
68375;SDS011;55318;52.068;5.188;2023-02-08T01:18:35;9.81;;;5.8;;
68375;SDS011;55318;52.068;5.188;2023-02-08T01:20:12;10.1;;;5.11;;
68375;SDS011;55318;52.068;5.188;2023-02-08T01:21:48;11.2;;;6.0;;
68375;SDS011;55318;52.068;5.188;2023-02-08T01:25:00;10.21;;;6.1;;
68375;SDS011;55318;52.068;5.188;2023-02-08T01:26:37;10.7;;;5.7;;
68375;SDS011;55318;52.068;5.188;2023-02-08T01:28:14;11.8;;;5.6;;
68375;SDS011;55318;52.068;5.188;2023-02-08T01:31:28;9.81;;;5.3;;
68375;SDS011;55318;52.068;5.188;2023-02-08T01:33:07;10.8;;;5.11;;
68375;SDS011;55318;52.068;5.188;2023-02-08T01:34:43;9.4;;;5.7;;
68375;SDS011;55318;52.068;5.188;2023-02-08T01:36:19;11.1;;;5.5;;
68375;SDS011;55318;52.068;5.188;2023-02-08T01:39:33;11.0;;;5.9;;
68375;SDS011;55318;52.068;5.188;2023-02-08T01:41:10;9.6;;;5.8;;
68375;SDS011;55318;52.068;5.188;2023-02-08T01:42:51;8.1;;;5.3;;
68375;SDS011;55318;52.068;5.188;2023-02-08T01:47:07;10.3;;;5.8;;
68375;SDS011;55318;52.068;5.188;2023-02-08T01:50:21;8.9;;;5.3;;
68375;SDS011;55318;52.068;5.188;2023-02-08T01:52:01;8.5;;;5.11;;
68375;SDS011;55318;52.068;5.188;2023-02-08T01:53:44;8.81;;;4.8;;
68375;SDS011;55318;52.068;5.188;2023-02-08T01:55:23;13.6;;;5.5;;
68375;SDS011;55318;52.068;5.188;2023-02-08T01:58:42;9.1;;;5.11;;
68375;SDS011;55318;52.068;5.188;2023-02-08T02:00:30;8.2;;;4.91;;
68375;SDS011;55318;52.068;5.188;2023-02-08T02:02:09;8.5;;;5.0;;
68375;SDS011;55318;52.068;5.188;2023-02-08T02:03:48;8.9;;;4.91;;
68375;SDS011;55318;52.068;5.188;2023-02-08T02:08:48;11.4;;;5.8;;
68375;SDS011;55318;52.068;5.188;2023-02-08T02:10:31;10.8;;;5.7;;
68375;SDS011;55318;52.068;5.188;2023-02-08T02:12:10;9.0;;;5.4;;
68375;SDS011;55318;52.068;5.188;2023-02-08T02:15:26;9.9;;;6.0;;
68375;SDS011;55318;52.068;5.188;2023-02-08T02:17:02;11.7;;;5.11;;
68375;SDS011;55318;52.068;5.188;2023-02-08T02:18:39;9.9;;;5.4;;
68375;SDS011;55318;52.068;5.188;2023-02-08T02:20:17;11.5;;;6.7;;
68375;SDS011;55318;52.068;5.188;2023-02-08T02:24:10;10.0;;;5.8;;
68375;SDS011;55318;52.068;5.188;2023-02-08T02:27:02;9.6;;;5.6;;
68375;SDS011;55318;52.068;5.188;2023-02-08T02:29:16;11.6;;;5.5;;
68375;SDS011;55318;52.068;5.188;2023-02-08T02:33:12;13.0;;;6.8;;
68375;SDS011;55318;52.068;5.188;2023-02-08T02:35:50;13.0;;;6.8;;
68375;SDS011;55318;52.068;5.188;2023-02-08T02:37:39;10.1;;;5.6;;
68375;SDS011;55318;52.068;5.188;2023-02-08T02:39:31;8.31;;;5.7;;
68375;SDS011;55318;52.068;5.188;2023-02-08T02:43:41;13.2;;;6.0;;
68375;SDS011;55318;52.068;5.188;2023-02-08T02:45:24;10.0;;;5.4;;
68375;SDS011;55318;52.068;5.188;2023-02-08T02:48:55;9.31;;;5.2;;
68375;SDS011;55318;52.068;5.188;2023-02-08T02:50:39;11.4;;;7.0;;
68375;SDS011;55318;52.068;5.188;2023-02-08T02:52:22;10.8;;;5.5;;
68375;SDS011;55318;52.068;5.188;2023-02-08T02:54:05;8.81;;;5.9;;
68375;SDS011;55318;52.068;5.188;2023-02-08T02:57:31;11.4;;;5.9;;
68375;SDS011;55318;52.068;5.188;2023-02-08T02:59:09;11.4;;;6.3;;
68375;SDS011;55318;52.068;5.188;2023-02-08T03:00:52;11.8;;;6.2;;
68375;SDS011;55318;52.068;5.188;2023-02-08T03:02:29;12.0;;;5.7;;
68375;SDS011;55318;52.068;5.188;2023-02-08T03:05:49;10.3;;;5.9;;
68375;SDS011;55318;52.068;5.188;2023-02-08T03:07:36;9.21;;;5.3;;
68375;SDS011;55318;52.068;5.188;2023-02-08T03:09:43;11.3;;;5.6;;
68375;SDS011;55318;52.068;5.188;2023-02-08T03:11:35;8.5;;;5.6;;
68375;SDS011;55318;52.068;5.188;2023-02-08T03:13:16;11.7;;;5.9;;
68375;SDS011;55318;52.068;5.188;2023-02-08T03:15:10;11.5;;;6.6;;
68375;SDS011;55318;52.068;5.188;2023-02-08T03:17:02;9.71;;;6.8;;
68375;SDS011;55318;52.068;5.188;2023-02-08T03:18:56;11.2;;;5.9;;
68375;SDS011;55318;52.068;5.188;2023-02-08T03:22:27;12.1;;;6.2;;
68375;SDS011;55318;52.068;5.188;2023-02-08T03:24:22;10.5;;;5.9;;
68375;SDS011;55318;52.068;5.188;2023-02-08T03:26:04;9.6;;;5.7;;
68375;SDS011;55318;52.068;5.188;2023-02-08T03:27:53;9.9;;;5.3;;
68375;SDS011;55318;52.068;5.188;2023-02-08T03:29:41;9.21;;;5.8;;
68375;SDS011;55318;52.068;5.188;2023-02-08T03:31:29;9.9;;;5.5;;
68375;SDS011;55318;52.068;5.188;2023-02-08T03:34:55;10.7;;;5.5;;
68375;SDS011;55318;52.068;5.188;2023-02-08T03:36:38;11.4;;;6.0;;
68375;SDS011;55318;52.068;5.188;2023-02-08T03:38:22;11.8;;;6.8;;
68375;SDS011;55318;52.068;5.188;2023-02-08T03:40:06;9.71;;;5.9;;
68375;SDS011;55318;52.068;5.188;2023-02-08T03:43:29;9.9;;;6.3;;
68375;SDS011;55318;52.068;5.188;2023-02-08T03:45:12;9.21;;;5.3;;
68375;SDS011;55318;52.068;5.188;2023-02-08T03:46:54;10.6;;;4.91;;
68375;SDS011;55318;52.068;5.188;2023-02-08T03:48:36;10.3;;;5.5;;
68375;SDS011;55318;52.068;5.188;2023-02-08T03:50:16;10.21;;;5.9;;
68375;SDS011;55318;52.068;5.188;2023-02-08T03:53:39;12.9;;;5.9;;
68375;SDS011;55318;52.068;5.188;2023-02-08T03:55:20;7.9;;;4.8;;
68375;SDS011;55318;52.068;5.188;2023-02-08T03:57:02;10.8;;;5.9;;
68375;SDS011;55318;52.068;5.188;2023-02-08T03:58:47;11.9;;;5.6;;
68375;SDS011;55318;52.068;5.188;2023-02-08T04:02:15;10.7;;;6.1;;
68375;SDS011;55318;52.068;5.188;2023-02-08T04:03:56;11.0;;;5.9;;
68375;SDS011;55318;52.068;5.188;2023-02-08T04:05:34;8.9;;;5.2;;
68375;SDS011;55318;52.068;5.188;2023-02-08T04:07:11;10.1;;;5.4;;
68375;SDS011;55318;52.068;5.188;2023-02-08T04:10:25;11.0;;;5.9;;
68375;SDS011;55318;52.068;5.188;2023-02-08T04:12:03;14.9;;;5.8;;
68375;SDS011;55318;52.068;5.188;2023-02-08T04:13:40;9.6;;;5.5;;
68375;SDS011;55318;52.068;5.188;2023-02-08T04:16:54;13.9;;;5.9;;
68375;SDS011;55318;52.068;5.188;2023-02-08T04:18:30;7.9;;;5.6;;
68375;SDS011;55318;52.068;5.188;2023-02-08T04:20:06;9.6;;;5.4;;
68375;SDS011;55318;52.068;5.188;2023-02-08T04:21:44;8.2;;;5.5;;
68375;SDS011;55318;52.068;5.188;2023-02-08T04:24:56;10.21;;;5.8;;
68375;SDS011;55318;52.068;5.188;2023-02-08T04:26:34;9.71;;;5.6;;
68375;SDS011;55318;52.068;5.188;2023-02-08T04:28:11;11.3;;;5.9;;
68375;SDS011;55318;52.068;5.188;2023-02-08T04:31:23;11.9;;;5.8;;
68375;SDS011;55318;52.068;5.188;2023-02-08T04:32:59;10.6;;;5.0;;
68375;SDS011;55318;52.068;5.188;2023-02-08T04:34:35;10.3;;;5.7;;
68375;SDS011;55318;52.068;5.188;2023-02-08T04:37:47;10.4;;;5.7;;
68375;SDS011;55318;52.068;5.188;2023-02-08T04:39:24;11.9;;;5.7;;
68375;SDS011;55318;52.068;5.188;2023-02-08T04:41:00;11.6;;;5.9;;
68375;SDS011;55318;52.068;5.188;2023-02-08T04:42:36;8.81;;;5.5;;
68375;SDS011;55318;52.068;5.188;2023-02-08T04:45:50;9.71;;;5.4;;
68375;SDS011;55318;52.068;5.188;2023-02-08T04:47:27;9.0;;;6.1;;
68375;SDS011;55318;52.068;5.188;2023-02-08T04:49:03;9.9;;;6.1;;
68375;SDS011;55318;52.068;5.188;2023-02-08T04:52:16;11.4;;;5.8;;
68375;SDS011;55318;52.068;5.188;2023-02-08T04:53:53;11.3;;;6.2;;
68375;SDS011;55318;52.068;5.188;2023-02-08T04:58:41;7.9;;;5.4;;
68375;SDS011;55318;52.068;5.188;2023-02-08T05:00:18;10.0;;;5.2;;
68375;SDS011;55318;52.068;5.188;2023-02-08T05:01:54;8.6;;;5.2;;
68375;SDS011;55318;52.068;5.188;2023-02-08T05:03:30;10.7;;;5.8;;
68375;SDS011;55318;52.068;5.188;2023-02-08T05:06:43;9.9;;;5.6;;
68375;SDS011;55318;52.068;5.188;2023-02-08T05:08:20;11.0;;;5.8;;
68375;SDS011;55318;52.068;5.188;2023-02-08T05:09:56;9.21;;;6.2;;
68375;SDS011;55318;52.068;5.188;2023-02-08T05:13:08;9.0;;;4.91;;
68375;SDS011;55318;52.068;5.188;2023-02-08T05:14:44;9.5;;;5.4;;
68375;SDS011;55318;52.068;5.188;2023-02-08T05:16:20;13.9;;;5.4;;
68375;SDS011;55318;52.068;5.188;2023-02-08T05:19:33;7.5;;;5.5;;
68375;SDS011;55318;52.068;5.188;2023-02-08T05:21:09;8.5;;;5.2;;
68375;SDS011;55318;52.068;5.188;2023-02-08T05:22:46;8.6;;;5.3;;
68375;SDS011;55318;52.068;5.188;2023-02-08T05:24:22;9.5;;;5.5;;
68375;SDS011;55318;52.068;5.188;2023-02-08T05:27:41;9.1;;;5.6;;
68375;SDS011;55318;52.068;5.188;2023-02-08T05:29:17;10.6;;;5.6;;
68375;SDS011;55318;52.068;5.188;2023-02-08T05:30:53;9.31;;;5.2;;
68375;SDS011;55318;52.068;5.188;2023-02-08T05:34:06;11.1;;;5.8;;
68375;SDS011;55318;52.068;5.188;2023-02-08T05:35:43;9.6;;;5.0;;
68375;SDS011;55318;52.068;5.188;2023-02-08T05:37:19;9.4;;;5.9;;
68375;SDS011;55318;52.068;5.188;2023-02-08T05:40:32;8.81;;;5.6;;
68375;SDS011;55318;52.068;5.188;2023-02-08T05:42:08;9.31;;;5.5;;
68375;SDS011;55318;52.068;5.188;2023-02-08T05:43:45;8.5;;;5.8;;
68375;SDS011;55318;52.068;5.188;2023-02-08T05:45:21;9.1;;;6.0;;
68375;SDS011;55318;52.068;5.188;2023-02-08T05:48:33;10.3;;;5.4;;
68375;SDS011;55318;52.068;5.188;2023-02-08T05:50:10;10.6;;;5.5;;
68375;SDS011;55318;52.068;5.188;2023-02-08T05:51:46;10.9;;;6.2;;
68375;SDS011;55318;52.068;5.188;2023-02-08T05:54:59;7.8;;;5.0;;
68375;SDS011;55318;52.068;5.188;2023-02-08T05:56:36;10.1;;;6.8;;
68375;SDS011;55318;52.068;5.188;2023-02-08T05:58:12;13.6;;;5.5;;
68375;SDS011;55318;52.068;5.188;2023-02-08T06:01:24;7.9;;;5.6;;
68375;SDS011;55318;52.068;5.188;2023-02-08T06:03:00;9.21;;;5.0;;
68375;SDS011;55318;52.068;5.188;2023-02-08T06:04:36;10.4;;;5.9;;
68375;SDS011;55318;52.068;5.188;2023-02-08T06:06:12;9.5;;;6.0;;
68375;SDS011;55318;52.068;5.188;2023-02-08T06:09:25;9.4;;;5.4;;
68375;SDS011;55318;52.068;5.188;2023-02-08T06:11:01;10.7;;;5.9;;
68375;SDS011;55318;52.068;5.188;2023-02-08T06:12:37;10.5;;;6.4;;
68375;SDS011;55318;52.068;5.188;2023-02-08T06:15:49;10.3;;;6.0;;
68375;SDS011;55318;52.068;5.188;2023-02-08T06:17:26;8.71;;;5.5;;
68375;SDS011;55318;52.068;5.188;2023-02-08T06:19:03;9.21;;;5.6;;
68375;SDS011;55318;52.068;5.188;2023-02-08T06:22:15;13.0;;;6.2;;
68375;SDS011;55318;52.068;5.188;2023-02-08T06:23:52;9.0;;;5.7;;
68375;SDS011;55318;52.068;5.188;2023-02-08T06:25:28;10.7;;;6.0;;
68375;SDS011;55318;52.068;5.188;2023-02-08T06:28:40;11.0;;;6.3;;
68375;SDS011;55318;52.068;5.188;2023-02-08T06:30:16;9.21;;;5.2;;
68375;SDS011;55318;52.068;5.188;2023-02-08T06:31:54;9.21;;;5.2;;
68375;SDS011;55318;52.068;5.188;2023-02-08T06:33:30;11.0;;;6.4;;
68375;SDS011;55318;52.068;5.188;2023-02-08T06:36:44;10.6;;;5.7;;
68375;SDS011;55318;52.068;5.188;2023-02-08T06:38:20;11.3;;;6.1;;
68375;SDS011;55318;52.068;5.188;2023-02-08T06:39:58;7.7;;;4.91;;
68375;SDS011;55318;52.068;5.188;2023-02-08T06:43:10;17.5;;;6.1;;
68375;SDS011;55318;52.068;5.188;2023-02-08T06:44:48;11.1;;;5.3;;
68375;SDS011;55318;52.068;5.188;2023-02-08T06:46:25;11.7;;;5.9;;
68375;SDS011;55318;52.068;5.188;2023-02-08T06:48:01;9.5;;;5.11;;
68375;SDS011;55318;52.068;5.188;2023-02-08T06:51:13;7.1;;;4.91;;
68375;SDS011;55318;52.068;5.188;2023-02-08T06:52:49;11.4;;;5.5;;
68375;SDS011;55318;52.068;5.188;2023-02-08T06:54:25;9.6;;;5.8;;
68375;SDS011;55318;52.068;5.188;2023-02-08T06:57:39;12.8;;;6.6;;
68375;SDS011;55318;52.068;5.188;2023-02-08T06:59:15;10.3;;;5.7;;
68375;SDS011;55318;52.068;5.188;2023-02-08T07:00:51;10.3;;;5.7;;
68375;SDS011;55318;52.068;5.188;2023-02-08T07:04:03;9.71;;;6.3;;
68375;SDS011;55318;52.068;5.188;2023-02-08T07:05:40;11.2;;;6.4;;
68375;SDS011;55318;52.068;5.188;2023-02-08T07:07:17;9.81;;;5.6;;
68375;SDS011;55318;52.068;5.188;2023-02-08T07:10:30;8.6;;;5.4;;
68375;SDS011;55318;52.068;5.188;2023-02-08T07:12:07;10.4;;;5.8;;
68375;SDS011;55318;52.068;5.188;2023-02-08T07:13:45;10.7;;;5.6;;
68375;SDS011;55318;52.068;5.188;2023-02-08T07:15:22;10.9;;;5.8;;
68375;SDS011;55318;52.068;5.188;2023-02-08T07:18:35;11.3;;;6.0;;
68375;SDS011;55318;52.068;5.188;2023-02-08T07:20:12;11.9;;;5.5;;
68375;SDS011;55318;52.068;5.188;2023-02-08T07:21:49;10.6;;;5.6;;
68375;SDS011;55318;52.068;5.188;2023-02-08T07:25:03;9.5;;;5.11;;
68375;SDS011;55318;52.068;5.188;2023-02-08T07:26:40;12.7;;;5.4;;
68375;SDS011;55318;52.068;5.188;2023-02-08T07:28:16;10.9;;;5.5;;
68375;SDS011;55318;52.068;5.188;2023-02-08T07:29:52;8.81;;;5.11;;
68375;SDS011;55318;52.068;5.188;2023-02-08T07:33:05;10.4;;;5.5;;
68375;SDS011;55318;52.068;5.188;2023-02-08T07:34:41;11.0;;;6.0;;
68375;SDS011;55318;52.068;5.188;2023-02-08T07:36:17;11.1;;;6.0;;
68375;SDS011;55318;52.068;5.188;2023-02-08T07:39:30;9.1;;;5.9;;
68375;SDS011;55318;52.068;5.188;2023-02-08T07:41:07;13.3;;;5.8;;
68375;SDS011;55318;52.068;5.188;2023-02-08T07:42:47;11.4;;;5.2;;
68375;SDS011;55318;52.068;5.188;2023-02-08T07:46:04;15.9;;;5.11;;
68375;SDS011;55318;52.068;5.188;2023-02-08T07:47:41;9.71;;;5.5;;
68375;SDS011;55318;52.068;5.188;2023-02-08T07:49:17;12.2;;;5.5;;
68375;SDS011;55318;52.068;5.188;2023-02-08T07:50:53;8.71;;;4.91;;
68375;SDS011;55318;52.068;5.188;2023-02-08T07:54:05;12.3;;;5.6;;
68375;SDS011;55318;52.068;5.188;2023-02-08T07:55:43;8.6;;;5.4;;
68375;SDS011;55318;52.068;5.188;2023-02-08T07:57:21;12.0;;;5.8;;
68375;SDS011;55318;52.068;5.188;2023-02-08T08:00:33;8.71;;;5.11;;
68375;SDS011;55318;52.068;5.188;2023-02-08T08:02:09;10.7;;;5.5;;
68375;SDS011;55318;52.068;5.188;2023-02-08T08:03:45;10.5;;;5.7;;
68375;SDS011;55318;52.068;5.188;2023-02-08T08:06:58;7.9;;;4.7;;
68375;SDS011;55318;52.068;5.188;2023-02-08T08:08:35;9.5;;;4.91;;
68375;SDS011;55318;52.068;5.188;2023-02-08T08:10:11;7.6;;;4.8;;
68375;SDS011;55318;52.068;5.188;2023-02-08T08:11:47;9.31;;;4.91;;
68375;SDS011;55318;52.068;5.188;2023-02-08T08:15:00;8.5;;;4.91;;
68375;SDS011;55318;52.068;5.188;2023-02-08T08:16:36;9.21;;;4.91;;
68375;SDS011;55318;52.068;5.188;2023-02-08T08:18:12;10.3;;;4.41;;
68375;SDS011;55318;52.068;5.188;2023-02-08T08:21:26;8.4;;;4.5;;
68375;SDS011;55318;52.068;5.188;2023-02-08T08:23:02;7.8;;;4.61;;
68375;SDS011;55318;52.068;5.188;2023-02-08T08:24:38;9.6;;;4.41;;
68375;SDS011;55318;52.068;5.188;2023-02-08T08:27:56;15.8;;;5.0;;
68375;SDS011;55318;52.068;5.188;2023-02-08T08:29:33;10.4;;;4.91;;
68375;SDS011;55318;52.068;5.188;2023-02-08T08:31:12;11.7;;;5.0;;
68375;SDS011;55318;52.068;5.188;2023-02-08T08:32:49;8.6;;;4.91;;
68375;SDS011;55318;52.068;5.188;2023-02-08T08:36:05;10.4;;;5.11;;
68375;SDS011;55318;52.068;5.188;2023-02-08T08:37:42;8.31;;;4.41;;
68375;SDS011;55318;52.068;5.188;2023-02-08T08:39:18;10.8;;;5.0;;
68375;SDS011;55318;52.068;5.188;2023-02-08T08:42:30;9.9;;;4.7;;
68375;SDS011;55318;52.068;5.188;2023-02-08T08:44:08;6.3;;;4.0;;
68375;SDS011;55318;52.068;5.188;2023-02-08T08:45:44;8.5;;;4.3;;
68375;SDS011;55318;52.068;5.188;2023-02-08T08:47:20;8.2;;;5.2;;
68375;SDS011;55318;52.068;5.188;2023-02-08T08:50:33;10.1;;;5.0;;
68375;SDS011;55318;52.068;5.188;2023-02-08T08:52:09;8.1;;;4.1;;
68375;SDS011;55318;52.068;5.188;2023-02-08T08:53:47;7.5;;;4.2;;
68375;SDS011;55318;52.068;5.188;2023-02-08T08:57:01;9.5;;;5.11;;
68375;SDS011;55318;52.068;5.188;2023-02-08T08:58:38;7.7;;;4.8;;
68375;SDS011;55318;52.068;5.188;2023-02-08T09:00:15;7.4;;;4.61;;
68375;SDS011;55318;52.068;5.188;2023-02-08T09:03:27;8.31;;;4.5;;
68375;SDS011;55318;52.068;5.188;2023-02-08T09:05:07;7.9;;;4.3;;
68375;SDS011;55318;52.068;5.188;2023-02-08T09:06:42;8.4;;;4.7;;
68375;SDS011;55318;52.068;5.188;2023-02-08T09:08:19;7.4;;;4.91;;
68375;SDS011;55318;52.068;5.188;2023-02-08T09:11:32;11.9;;;5.3;;
68375;SDS011;55318;52.068;5.188;2023-02-08T09:13:08;12.2;;;5.3;;
68375;SDS011;55318;52.068;5.188;2023-02-08T09:14:45;9.21;;;4.41;;
68375;SDS011;55318;52.068;5.188;2023-02-08T09:18:00;7.1;;;4.2;;
68375;SDS011;55318;52.068;5.188;2023-02-08T09:19:36;7.3;;;4.41;;
68375;SDS011;55318;52.068;5.188;2023-02-08T09:21:12;7.3;;;4.41;;
68375;SDS011;55318;52.068;5.188;2023-02-08T09:22:52;9.81;;;4.7;;
68375;SDS011;55318;52.068;5.188;2023-02-08T09:26:06;8.31;;;4.61;;
68375;SDS011;55318;52.068;5.188;2023-02-08T09:27:45;8.81;;;4.61;;
68375;SDS011;55318;52.068;5.188;2023-02-08T09:29:22;8.2;;;4.3;;
68375;SDS011;55318;52.068;5.188;2023-02-08T09:32:43;9.21;;;5.0;;
68375;SDS011;55318;52.068;5.188;2023-02-08T09:34:19;7.8;;;4.2;;
68375;SDS011;55318;52.068;5.188;2023-02-08T09:35:56;9.5;;;4.5;;
68375;SDS011;55318;52.068;5.188;2023-02-08T09:37:32;12.0;;;4.91;;
68375;SDS011;55318;52.068;5.188;2023-02-08T09:40:52;14.3;;;6.0;;
68375;SDS011;55318;52.068;5.188;2023-02-08T09:42:48;8.81;;;5.2;;
68375;SDS011;55318;52.068;5.188;2023-02-08T09:44:39;11.4;;;4.61;;
68375;SDS011;55318;52.068;5.188;2023-02-08T09:46:27;8.4;;;4.61;;
68375;SDS011;55318;52.068;5.188;2023-02-08T09:48:12;9.71;;;5.0;;
68375;SDS011;55318;52.068;5.188;2023-02-08T09:51:40;7.2;;;4.7;;
68375;SDS011;55318;52.068;5.188;2023-02-08T09:53:23;7.7;;;4.41;;
68375;SDS011;55318;52.068;5.188;2023-02-08T09:55:15;8.1;;;4.61;;
68375;SDS011;55318;52.068;5.188;2023-02-08T09:57:08;9.9;;;5.0;;
68375;SDS011;55318;52.068;5.188;2023-02-08T09:58:53;11.0;;;5.4;;
68375;SDS011;55318;52.068;5.188;2023-02-08T10:00:33;7.8;;;4.3;;
68375;SDS011;55318;52.068;5.188;2023-02-08T10:03:58;10.6;;;5.11;;
68375;SDS011;55318;52.068;5.188;2023-02-08T10:05:40;7.8;;;4.8;;
68375;SDS011;55318;52.068;5.188;2023-02-08T10:07:17;10.21;;;4.91;;
68375;SDS011;55318;52.068;5.188;2023-02-08T10:08:53;8.81;;;4.91;;
68375;SDS011;55318;52.068;5.188;2023-02-08T10:12:19;9.9;;;4.7;;
68375;SDS011;55318;52.068;5.188;2023-02-08T10:14:13;7.0;;;4.2;;
68375;SDS011;55318;52.068;5.188;2023-02-08T10:16:18;9.21;;;4.8;;
68375;SDS011;55318;52.068;5.188;2023-02-08T10:18:18;8.71;;;5.11;;
68375;SDS011;55318;52.068;5.188;2023-02-08T10:20:07;8.4;;;4.61;;
68375;SDS011;55318;52.068;5.188;2023-02-08T10:21:57;9.31;;;4.3;;
68375;SDS011;55318;52.068;5.188;2023-02-08T10:23:48;9.1;;;4.61;;
68375;SDS011;55318;52.068;5.188;2023-02-08T10:25:44;8.5;;;4.8;;
68375;SDS011;55318;52.068;5.188;2023-02-08T10:29:28;8.9;;;4.41;;
68375;SDS011;55318;52.068;5.188;2023-02-08T10:32:57;8.81;;;4.7;;
68375;SDS011;55318;52.068;5.188;2023-02-08T10:34:39;9.1;;;4.8;;
68375;SDS011;55318;52.068;5.188;2023-02-08T10:36:21;8.1;;;4.61;;
68375;SDS011;55318;52.068;5.188;2023-02-08T10:39:59;7.5;;;4.1;;
68375;SDS011;55318;52.068;5.188;2023-02-08T10:41:53;8.1;;;4.5;;
68375;SDS011;55318;52.068;5.188;2023-02-08T10:43:33;6.6;;;4.41;;
68375;SDS011;55318;52.068;5.188;2023-02-08T10:45:17;6.6;;;4.41;;
68375;SDS011;55318;52.068;5.188;2023-02-08T10:47:02;8.6;;;4.91;;
68375;SDS011;55318;52.068;5.188;2023-02-08T10:48:52;7.7;;;5.5;;
68375;SDS011;55318;52.068;5.188;2023-02-08T10:52:18;6.9;;;4.5;;
68375;SDS011;55318;52.068;5.188;2023-02-08T10:53:54;8.6;;;4.2;;
68375;SDS011;55318;52.068;5.188;2023-02-08T10:55:31;9.4;;;4.61;;
68375;SDS011;55318;52.068;5.188;2023-02-08T10:57:14;11.7;;;4.8;;
68375;SDS011;55318;52.068;5.188;2023-02-08T11:00:35;8.1;;;4.91;;
68375;SDS011;55318;52.068;5.188;2023-02-08T11:02:16;8.4;;;5.0;;
68375;SDS011;55318;52.068;5.188;2023-02-08T11:04:01;8.4;;;4.5;;
68375;SDS011;55318;52.068;5.188;2023-02-08T11:05:39;10.6;;;4.8;;
68375;SDS011;55318;52.068;5.188;2023-02-08T11:08:55;9.1;;;4.8;;
68375;SDS011;55318;52.068;5.188;2023-02-08T11:10:33;7.0;;;4.5;;
68375;SDS011;55318;52.068;5.188;2023-02-08T11:12:14;8.1;;;4.61;;
68375;SDS011;55318;52.068;5.188;2023-02-08T11:14:04;8.1;;;4.61;;
68375;SDS011;55318;52.068;5.188;2023-02-08T11:17:24;10.1;;;4.8;;
68375;SDS011;55318;52.068;5.188;2023-02-08T11:19:06;6.9;;;4.2;;
68375;SDS011;55318;52.068;5.188;2023-02-08T11:20:58;7.3;;;4.7;;
68375;SDS011;55318;52.068;5.188;2023-02-08T11:22:37;9.4;;;4.61;;
68375;SDS011;55318;52.068;5.188;2023-02-08T11:24:21;8.1;;;4.5;;
68375;SDS011;55318;52.068;5.188;2023-02-08T11:27:59;8.6;;;4.3;;
68375;SDS011;55318;52.068;5.188;2023-02-08T11:29:36;7.7;;;4.3;;
68375;SDS011;55318;52.068;5.188;2023-02-08T11:31:15;7.6;;;4.41;;
68375;SDS011;55318;52.068;5.188;2023-02-08T11:33:26;7.0;;;4.41;;
68375;SDS011;55318;52.068;5.188;2023-02-08T11:35:10;13.5;;;4.61;;
68375;SDS011;55318;52.068;5.188;2023-02-08T11:36:54;6.7;;;4.0;;
68375;SDS011;55318;52.068;5.188;2023-02-08T11:40:14;8.2;;;4.0;;
68375;SDS011;55318;52.068;5.188;2023-02-08T11:41:56;6.9;;;3.6;;
68375;SDS011;55318;52.068;5.188;2023-02-08T11:43:35;10.5;;;4.2;;
68375;SDS011;55318;52.068;5.188;2023-02-08T11:45:16;6.7;;;3.8;;
68375;SDS011;55318;52.068;5.188;2023-02-08T11:48:38;9.6;;;4.5;;
68375;SDS011;55318;52.068;5.188;2023-02-08T11:50:22;5.3;;;3.5;;
68375;SDS011;55318;52.068;5.188;2023-02-08T11:52:02;9.21;;;4.0;;
68375;SDS011;55318;52.068;5.188;2023-02-08T11:53:45;7.9;;;4.5;;
68375;SDS011;55318;52.068;5.188;2023-02-08T11:57:08;8.2;;;4.0;;
68375;SDS011;55318;52.068;5.188;2023-02-08T11:58:56;9.21;;;4.2;;
68375;SDS011;55318;52.068;5.188;2023-02-08T12:00:57;6.9;;;4.1;;
68375;SDS011;55318;52.068;5.188;2023-02-08T12:02:37;7.1;;;4.2;;
68375;SDS011;55318;52.068;5.188;2023-02-08T12:04:15;7.1;;;4.0;;
68375;SDS011;55318;52.068;5.188;2023-02-08T12:07:48;12.2;;;4.2;;
68375;SDS011;55318;52.068;5.188;2023-02-08T12:09:46;9.31;;;4.7;;
68375;SDS011;55318;52.068;5.188;2023-02-08T12:13:19;6.6;;;4.2;;
68375;SDS011;55318;52.068;5.188;2023-02-08T12:15:10;5.6;;;3.5;;
68375;SDS011;55318;52.068;5.188;2023-02-08T12:17:02;7.0;;;3.5;;
68375;SDS011;55318;52.068;5.188;2023-02-08T12:19:03;6.7;;;3.8;;
68375;SDS011;55318;52.068;5.188;2023-02-08T12:21:01;6.9;;;4.2;;
68375;SDS011;55318;52.068;5.188;2023-02-08T12:22:47;6.1;;;3.4;;
68375;SDS011;55318;52.068;5.188;2023-02-08T12:26:31;4.91;;;3.3;;
68375;SDS011;55318;52.068;5.188;2023-02-08T12:28:23;6.5;;;3.4;;
68375;SDS011;55318;52.068;5.188;2023-02-08T12:30:16;7.9;;;3.8;;
68375;SDS011;55318;52.068;5.188;2023-02-08T12:32:03;5.3;;;3.1;;
68375;SDS011;55318;52.068;5.188;2023-02-08T12:33:57;7.0;;;4.0;;
68375;SDS011;55318;52.068;5.188;2023-02-08T12:35:46;7.0;;;4.0;;
68375;SDS011;55318;52.068;5.188;2023-02-08T12:40:54;6.6;;;3.9;;
68375;SDS011;55318;52.068;5.188;2023-02-08T12:42:45;6.0;;;3.2;;
68375;SDS011;55318;52.068;5.188;2023-02-08T12:44:40;7.1;;;3.7;;
68375;SDS011;55318;52.068;5.188;2023-02-08T12:46:46;5.6;;;2.9;;
68375;SDS011;55318;52.068;5.188;2023-02-08T12:48:34;3.8;;;2.7;;
68375;SDS011;55318;52.068;5.188;2023-02-08T12:50:36;5.3;;;3.3;;
68375;SDS011;55318;52.068;5.188;2023-02-08T12:52:24;5.8;;;3.2;;
68375;SDS011;55318;52.068;5.188;2023-02-08T12:54:11;8.1;;;3.5;;
68375;SDS011;55318;52.068;5.188;2023-02-08T12:57:32;4.61;;;3.6;;
68375;SDS011;55318;52.068;5.188;2023-02-08T13:00:59;5.9;;;3.5;;
68375;SDS011;55318;52.068;5.188;2023-02-08T13:02:45;5.6;;;3.9;;
68375;SDS011;55318;52.068;5.188;2023-02-08T13:06:15;5.6;;;3.1;;
68375;SDS011;55318;52.068;5.188;2023-02-08T13:07:57;5.3;;;3.5;;
68375;SDS011;55318;52.068;5.188;2023-02-08T13:09:42;5.9;;;3.4;;
68375;SDS011;55318;52.068;5.188;2023-02-08T13:11:26;6.6;;;3.5;;
68375;SDS011;55318;52.068;5.188;2023-02-08T13:13:11;5.5;;;3.4;;